Time;durP1;ratioP1;P1;durP2;ratioP2;P2;SDS_P1;SDS_P2;PMS_P1;PMS_P2;Temp;Humidity;BMP_temperature;BMP_pressure;BME280_temperature;BME280_humidity;BME280_pressure;Samples;Min_cycle;Max_cycle;Signal;HPM_P1;HPM_P2
2023/03/11 00:00:28;;;;;;;3.17;3.17;;;;;;;0.38;91.14;100114.53;5115399;28;20570;-71
2023/03/11 00:02:57;;;;;;;6.63;3.77;;;;;;;0.39;91.48;100114.50;5115410;28;20284;-71
2023/03/11 00:05:27;;;;;;;4.63;4.63;;;;;;;0.41;91.00;100122.34;5115393;28;20301;-71
2023/03/11 00:07:55;;;;;;;3.40;3.40;;;;;;;0.40;90.30;100133.78;5115633;28;20169;-71
2023/03/11 00:10:28;;;;;;;3.43;3.13;;;;;;;0.46;91.11;100130.91;5115217;28;20241;-71
2023/03/11 00:12:56;;;;;;;3.70;3.60;;;;;;;0.46;90.76;100151.13;5096866;28;20717;-71
2023/03/11 00:15:23;;;;;;;3.20;3.10;;;;;;;0.49;89.63;100143.97;5115188;28;20219;-71
2023/03/11 00:17:51;;;;;;;3.87;3.77;;;;;;;0.49;90.13;100156.28;5116012;28;20208;-71
2023/03/11 00:20:30;;;;;;;3.50;3.40;;;;;;;0.48;90.86;100168.59;5115150;28;20201;-71
2023/03/11 00:22:57;;;;;;;3.43;3.40;;;;;;;0.55;90.41;100164.81;5114950;28;20624;-71
2023/03/11 00:25:27;;;;;;;4.50;4.30;;;;;;;0.50;91.03;100172.00;5114811;28;20197;-71
2023/03/11 00:27:53;;;;;;;5.57;4.03;;;;;;;0.56;89.76;100170.94;5115142;28;20209;-71
2023/03/11 00:30:21;;;;;;;3.50;3.30;;;;;;;0.52;90.17;100177.22;5115398;28;20218;-71
2023/03/11 00:32:49;;;;;;;3.70;3.70;;;;;;;0.53;90.24;100177.19;5114726;28;20306;-71
2023/03/11 00:35:19;;;;;;;3.87;3.87;;;;;;;0.50;90.46;100184.31;5096473;28;20189;-71
2023/03/11 00:37:46;;;;;;;11.07;3.93;;;;;;;0.48;89.68;100181.78;5114781;28;20181;-71
2023/03/11 00:40:16;;;;;;;3.90;3.63;;;;;;;0.49;90.22;100186.09;5114878;28;20204;-71
2023/03/11 00:42:42;;;;;;;4.17;4.07;;;;;;;0.48;88.93;100187.03;5079505;28;20245;-72
2023/03/11 00:45:10;;;;;;;3.40;3.30;;;;;;;0.47;90.07;100200.25;5114569;28;20272;-72
2023/03/11 00:47:37;;;;;;;3.70;3.50;;;;;;;0.46;89.30;100195.91;5096322;28;20192;-72
2023/03/11 00:50:04;;;;;;;3.67;3.47;;;;;;;0.42;90.67;100188.13;5114744;28;20703;-72
2023/03/11 00:52:30;;;;;;;3.37;3.13;;;;;;;0.45;89.90;100196.81;5114342;28;20291;-70
2023/03/11 00:55:00;;;;;;;3.27;3.17;;;;;;;0.42;90.79;100197.81;5114375;28;20188;-70
2023/03/11 00:57:28;;;;;;;3.63;3.43;;;;;;;0.44;89.82;100200.38;5115250;28;20229;-70
2023/03/11 00:59:55;;;;;;;3.27;3.17;;;;;;;0.37;90.06;100213.78;5096045;28;20632;-71
2023/03/11 01:02:23;;;;;;;9.10;3.30;;;;;;;0.39;89.79;100222.47;5095174;28;20228;-71
2023/03/11 01:04:55;;;;;;;3.60;3.30;;;;;;;0.40;90.36;100223.34;5096021;28;20593;-71
2023/03/11 01:07:22;;;;;;;3.87;3.40;;;;;;;0.38;89.14;100226.03;5114783;28;20178;-71
2023/03/11 01:09:48;;;;;;;4.60;3.40;;;;;;;0.31;90.05;100235.09;5095885;28;20653;-71
2023/03/11 01:12:15;;;;;;;3.83;3.17;;;;;;;0.38;89.56;100230.44;5095844;28;20242;-71
2023/03/11 01:14:41;;;;;;;3.27;3.27;;;;;;;0.38;89.94;100235.69;5095917;28;20221;-71
2023/03/11 01:17:07;;;;;;;2.67;2.67;;;;;;;0.34;90.87;100234.13;5114038;28;20235;-71
2023/03/11 01:19:34;;;;;;;3.27;3.27;;;;;;;0.39;89.93;100240.06;5095763;28;20632;-71
2023/03/11 01:22:00;;;;;;;3.77;3.53;;;;;;;0.35;89.64;100236.66;5095908;28;20233;-70
2023/03/11 01:24:27;;;;;;;2.83;2.70;;;;;;;0.34;90.78;100232.34;5114059;28;20193;-70
2023/03/11 01:26:53;;;;;;;3.40;3.30;;;;;;;0.38;90.41;100239.22;5113913;28;20219;-71
2023/03/11 01:29:19;;;;;;;3.20;3.10;;;;;;;0.38;89.10;100233.94;5114410;28;20264;-71
2023/03/11 01:31:46;;;;;;;3.03;2.90;;;;;;;0.33;90.96;100237.66;5113773;28;20624;-70
2023/03/11 01:34:12;;;;;;;4.23;4.03;;;;;;;0.35;89.68;100234.03;5113795;28;20198;-71
2023/03/11 01:36:39;;;;;;;4.47;4.17;;;;;;;0.33;90.85;100237.66;5113775;28;20578;-71
2023/03/11 01:39:06;;;;;;;5.87;5.77;;;;;;;0.33;91.02;100242.91;5114236;28;20212;-71
2023/03/11 01:41:32;;;;;;;5.43;5.20;;;;;;;0.28;91.37;100247.50;5113636;28;20236;-70
2023/03/11 01:44:00;;;;;;;5.03;4.83;;;;;;;0.31;90.58;100244.75;5095416;28;20697;-70
2023/03/11 01:46:58;;;;;;;4.80;4.63;;;;;;;0.21;90.55;100241.59;5095375;28;20199;-70
2023/03/11 01:49:29;;;;;;;3.70;3.60;;;;;;;0.17;92.05;100254.03;5095344;28;20563;-70
2023/03/11 01:52:02;;;;;;;8.10;3.80;;;;;;;0.09;91.74;100263.97;5095402;28;20295;-70
2023/03/11 01:54:32;;;;;;;3.97;3.63;;;;;;;0.17;92.44;100267.19;5095403;28;20704;-70
2023/03/11 01:57:00;;;;;;;3.80;3.70;;;;;;;0.18;91.73;100268.03;5095304;28;20352;-70
2023/03/11 01:59:36;;;;;;;4.80;4.03;;;;;;;0.18;92.14;100268.91;5095291;28;20205;-70
2023/03/11 02:02:28;;;;;;;3.87;3.50;;;;;;;0.17;91.55;100266.34;5095208;28;20214;-70
2023/03/11 02:04:55;;;;;;;5.90;4.73;;;;;;;0.17;90.64;100268.97;5095298;28;20255;-70
2023/03/11 02:07:23;;;;;;;4.17;4.03;;;;;;;0.18;90.95;100270.69;5095223;28;20185;-70
2023/03/11 02:09:49;;;;;;;4.30;4.10;;;;;;;0.18;91.29;100270.69;5095283;28;20196;-70
2023/03/11 02:12:16;;;;;;;4.73;4.43;;;;;;;0.16;90.05;100273.34;5095845;28;20216;-70
2023/03/11 02:14:48;;;;;;;5.30;4.80;;;;;;;0.14;90.53;100275.19;5098826;28;20195;-70
2023/03/11 02:17:15;;;;;;;4.60;4.50;;;;;;;0.14;90.54;100269.06;5099244;28;20238;-70
2023/03/11 02:20:00;;;;;;;4.23;3.87;;;;;;;0.10;89.74;100272.75;5099057;28;20257;-70
2023/03/11 02:22:32;;;;;;;4.43;4.23;;;;;;;0.09;90.12;100268.38;5099047;28;20213;-70
2023/03/11 02:25:16;;;;;;;7.37;4.00;;;;;;;0.05;89.52;100267.66;5099152;28;20221;-70
2023/03/11 02:27:46;;;;;;;4.87;4.57;;;;;;;0.01;89.71;100276.56;5098950;28;20188;-70
2023/03/11 02:30:15;;;;;;;5.03;4.63;;;;;;;-0.02;90.26;100269.63;5098939;28;20193;-70
2023/03/11 02:32:47;;;;;;;4.93;4.63;;;;;;;-0.01;90.07;100267.84;5098769;28;20209;-70
2023/03/11 02:35:15;;;;;;;4.30;3.17;;;;;;;-0.07;90.79;100271.56;5098867;28;20181;-70
2023/03/11 02:37:46;;;;;;;2.63;2.43;;;;;;;-0.12;90.83;100267.38;5098704;28;20271;-70
2023/03/11 02:40:22;;;;;;;3.03;2.77;;;;;;;-0.13;90.68;100278.81;5098661;28;20233;-70
2023/03/11 02:42:56;;;;;;;4.30;2.93;;;;;;;-0.13;91.09;100276.19;5098656;28;20291;-70
2023/03/11 02:45:25;;;;;;;5.60;3.63;;;;;;;-0.18;90.36;100272.84;5098619;28;20598;-70
2023/03/11 02:47:54;;;;;;;3.67;3.33;;;;;;;-0.13;91.29;100278.81;5098642;28;20245;-70
2023/03/11 02:50:21;;;;;;;3.80;3.73;;;;;;;-0.14;91.20;100280.59;5117395;28;20185;-70
2023/03/11 02:52:48;;;;;;;3.87;3.73;;;;;;;-0.23;91.18;100273.00;5098522;28;20212;-71
2023/03/11 02:55:16;;;;;;;4.27;4.00;;;;;;;-0.15;90.65;100292.00;5116748;28;20196;-70
2023/03/11 02:57:43;;;;;;;5.40;4.93;;;;;;;-0.19;91.03;100290.44;5116673;28;20220;-70
2023/03/11 03:00:13;;;;;;;9.93;4.13;;;;;;;-0.26;91.18;100287.13;5117081;28;20302;-70
2023/03/11 03:02:45;;;;;;;5.07;4.13;;;;;;;-0.28;90.51;100293.38;5098279;28;20732;-70
2023/03/11 03:05:12;;;;;;;9.40;5.10;;;;;;;-0.27;91.39;100289.81;5098216;28;20196;-70
2023/03/11 03:07:39;;;;;;;7.53;5.67;;;;;;;-0.20;90.54;100293.94;5098263;28;20196;-70
2023/03/11 03:10:06;;;;;;;7.43;5.97;;;;;;;-0.19;91.82;100303.59;5098211;28;20202;-70
2023/03/11 03:12:33;;;;;;;5.77;5.40;;;;;;;-0.12;91.03;100299.81;5098082;28;20211;-70
2023/03/11 03:14:59;;;;;;;7.37;4.83;;;;;;;-0.08;90.68;100295.28;5116606;28;20181;-70
2023/03/11 03:17:26;;;;;;;8.07;5.83;;;;;;;-0.13;90.11;100307.75;5117024;28;20181;-71
2023/03/11 03:19:52;;;;;;;5.10;4.90;;;;;;;-0.13;91.43;100303.34;5116466;28;20329;-71
2023/03/11 03:22:19;;;;;;;5.57;4.50;;;;;;;-0.09;90.58;100312.88;5116396;28;20628;-70
2023/03/11 03:24:46;;;;;;;4.20;3.90;;;;;;;-0.08;89.72;100308.47;5096879;28;20204;-70
2023/03/11 03:27:13;;;;;;;4.70;4.57;;;;;;;-0.12;89.51;100305.09;5098194;28;20272;-70
2023/03/11 03:29:39;;;;;;;12.40;4.33;;;;;;;-0.08;89.71;100313.72;5116641;28;20176;-70
2023/03/11 03:32:06;;;;;;;7.33;3.80;;;;;;;-0.11;90.38;100319.94;5097767;28;20209;-69
2023/03/11 03:34:33;;;;;;;7.60;4.73;;;;;;;-0.10;89.81;100315.53;5097661;28;20199;-70
2023/03/11 03:36:59;;;;;;;7.60;4.10;;;;;;;-0.15;88.65;100317.47;5097874;28;20194;-70
2023/03/11 03:39:26;;;;;;;4.03;3.73;;;;;;;-0.11;89.99;100317.31;5116356;28;20189;-70
2023/03/11 03:41:55;;;;;;;15.00;4.60;;;;;;;-0.07;88.20;100320.72;5097552;28;20303;-69
2023/03/11 03:44:24;;;;;;;5.63;4.53;;;;;;;-0.09;89.40;100333.06;5097826;28;20219;-69
2023/03/11 03:46:51;;;;;;;3.90;3.70;;;;;;;-0.06;89.34;100331.19;5097421;28;20227;-69
2023/03/11 03:49:17;;;;;;;12.47;4.33;;;;;;;-0.09;88.17;100330.44;5097967;28;20621;-69
2023/03/11 03:51:45;;;;;;;8.10;3.80;;;;;;;-0.04;88.19;100325.88;5097261;28;20208;-69
2023/03/11 03:54:24;;;;;;;6.43;4.00;;;;;;;-0.12;87.69;100341.94;5098122;28;20283;-69
2023/03/11 03:56:51;;;;;;;4.87;3.50;;;;;;;-0.11;87.70;100342.78;5097228;28;20674;-69
2023/03/11 03:59:17;;;;;;;7.57;3.87;;;;;;;-0.11;88.88;100353.31;5097307;28;20192;-69
2023/03/11 04:01:48;;;;;;;4.00;3.80;;;;;;;-0.11;87.45;100348.03;5097060;28;20228;-69
2023/03/11 04:04:16;;;;;;;4.93;3.57;;;;;;;-0.13;87.21;100355.97;5097944;28;20296;-69
2023/03/11 04:06:42;;;;;;;9.97;3.40;;;;;;;-0.13;88.20;100353.34;5097167;28;20216;-69
2023/03/11 04:09:10;;;;;;;5.50;4.57;;;;;;;-0.11;88.37;100351.53;5115324;28;20222;-69
2023/03/11 04:11:37;;;;;;;4.40;4.00;;;;;;;-0.10;88.25;100358.50;5096881;28;20212;-69
2023/03/11 04:14:04;;;;;;;5.10;4.77;;;;;;;-0.09;88.00;100354.13;5115200;28;20242;-69
2023/03/11 04:16:35;;;;;;;6.23;4.97;;;;;;;-0.11;87.27;100354.16;5096895;28;20194;-69
2023/03/11 04:19:08;;;;;;;6.10;5.40;;;;;;;-0.09;86.82;100368.13;5097445;28;20211;-69
2023/03/11 04:21:35;;;;;;;5.90;5.60;;;;;;;-0.13;88.50;100368.28;5096827;28;20224;-69
2023/03/11 04:24:02;;;;;;;8.23;5.70;;;;;;;-0.08;88.28;100379.50;5096631;28;20193;-69
2023/03/11 04:26:33;;;;;;;6.17;5.07;;;;;;;-0.06;87.52;100378.56;5097322;28;20188;-69
2023/03/11 04:29:00;;;;;;;7.47;6.03;;;;;;;-0.09;87.29;100377.81;5114935;28;20205;-69
2023/03/11 04:31:30;;;;;;;6.50;5.70;;;;;;;-0.04;88.22;100384.63;5096817;28;20212;-69
2023/03/11 04:33:58;;;;;;;4.93;4.63;;;;;;;-0.10;87.10;100384.81;5096481;28;20272;-69
2023/03/11 04:36:25;;;;;;;5.87;5.37;;;;;;;-0.17;87.50;100378.03;5096397;28;20186;-69
2023/03/11 04:38:51;;;;;;;10.43;4.73;;;;;;;-0.14;87.58;100392.91;5096380;28;20199;-69
2023/03/11 04:41:19;;;;;;;4.57;4.27;;;;;;;-0.13;87.67;100398.09;5096267;28;20710;-69
2023/03/11 04:43:46;;;;;;;6.17;4.97;;;;;;;-0.09;88.52;100399.72;5096404;28;20611;-69
2023/03/11 04:46:12;;;;;;;7.67;5.43;;;;;;;-0.11;87.82;100390.16;5096379;28;20585;-69
2023/03/11 04:48:40;;;;;;;3.90;3.70;;;;;;;-0.22;87.36;100398.38;5114558;28;20185;-69
2023/03/11 04:51:07;;;;;;;4.77;4.60;;;;;;;-0.16;88.22;100398.19;5096313;28;20276;-68
2023/03/11 04:53:34;;;;;;;5.17;4.87;;;;;;;-0.12;87.10;100398.94;5096503;28;20552;-69
2023/03/11 04:56:00;;;;;;;3.80;3.60;;;;;;;-0.11;87.75;100409.44;5096171;28;20189;-69
2023/03/11 04:58:29;;;;;;;3.93;3.63;;;;;;;-0.10;86.82;100413.78;5096616;28;20208;-69
2023/03/11 05:01:04;;;;;;;4.43;3.90;;;;;;;-0.13;87.80;100413.88;5095981;28;20610;-70
2023/03/11 05:03:31;;;;;;;8.90;4.30;;;;;;;-0.13;88.03;100423.56;5096078;28;20243;-69
2023/03/11 05:05:59;;;;;;;8.23;3.80;;;;;;;-0.18;87.52;100428.09;5095990;28;20218;-69
2023/03/11 05:08:25;;;;;;;7.20;3.67;;;;;;;-0.18;87.29;100430.75;5096188;28;20203;-69
2023/03/11 05:10:52;;;;;;;3.67;3.40;;;;;;;-0.11;86.52;100435.75;5095849;28;20565;-69
2023/03/11 05:13:20;;;;;;;6.90;3.73;;;;;;;-0.06;87.12;100425.94;5095749;28;20244;-69
2023/03/11 05:15:47;;;;;;;4.23;3.93;;;;;;;-0.12;87.00;100423.50;5096026;28;20189;-69
2023/03/11 05:18:14;;;;;;;4.13;3.67;;;;;;;-0.14;86.19;100427.97;5095709;28;20628;-69
2023/03/11 05:20:41;;;;;;;7.67;4.97;;;;;;;-0.11;85.91;100433.13;5095654;28;20213;-69
2023/03/11 05:23:09;;;;;;;4.20;3.90;;;;;;;-0.16;86.44;100439.44;5095636;28;20209;-69
2023/03/11 05:25:36;;;;;;;4.60;3.57;;;;;;;-0.19;85.81;100440.41;5095655;28;20293;-69
2023/03/11 05:28:03;;;;;;;13.53;3.57;;;;;;;-0.25;85.79;100440.59;5095596;28;20200;-69
2023/03/11 05:30:32;;;;;;;4.00;3.83;;;;;;;-0.23;86.81;100444.03;5095507;28;20184;-69
2023/03/11 05:32:58;;;;;;;4.47;4.23;;;;;;;-0.21;85.76;100442.22;5095523;28;20304;-68
2023/03/11 05:35:26;;;;;;;4.70;4.40;;;;;;;-0.25;85.84;100441.44;5113719;28;20686;-68
2023/03/11 05:37:53;;;;;;;4.63;4.20;;;;;;;-0.23;85.72;100431.75;5113714;28;20193;-68
2023/03/11 05:40:21;;;;;;;4.20;4.10;;;;;;;-0.19;85.60;100442.16;5095450;28;20215;-68
2023/03/11 05:42:48;;;;;;;4.57;4.27;;;;;;;-0.17;85.87;100438.56;5095531;28;20232;-67
2023/03/11 05:45:15;;;;;;;4.67;4.17;;;;;;;-0.22;85.28;100441.38;5095423;28;20215;-67
2023/03/11 05:47:44;;;;;;;4.00;3.80;;;;;;;-0.17;85.96;100449.09;5097711;28;20177;-66
2023/03/11 05:50:12;;;;;;;4.33;4.03;;;;;;;-0.18;85.70;100451.78;5102464;28;20200;-66
2023/03/11 05:52:40;;;;;;;4.13;3.40;;;;;;;-0.20;85.86;100459.72;5102636;28;20216;-66
2023/03/11 05:55:10;;;;;;;5.43;4.00;;;;;;;-0.14;86.29;100449.00;5102217;28;20206;-68
2023/03/11 05:57:38;;;;;;;3.67;3.47;;;;;;;-0.16;85.97;100453.47;5102173;28;20660;-68
2023/03/11 06:00:11;;;;;;;6.00;4.47;;;;;;;-0.15;86.07;100462.22;5101925;28;20199;-68
2023/03/11 06:02:43;;;;;;;3.53;3.13;;;;;;;-0.17;85.19;100470.13;5101938;28;20790;-69
2023/03/11 06:05:13;;;;;;;5.67;3.33;;;;;;;-0.18;85.89;100465.81;5102974;28;20223;-68
2023/03/11 06:07:41;;;;;;;4.50;4.13;;;;;;;-0.20;86.13;100464.13;5102597;28;20582;-68
2023/03/11 06:10:09;;;;;;;4.00;3.00;;;;;;;-0.26;85.27;100467.84;5102443;28;20271;-66
2023/03/11 06:12:37;;;;;;;6.23;3.50;;;;;;;-0.28;85.85;100470.50;5101840;28;20695;-67
2023/03/11 06:15:23;;;;;;;2.97;2.87;;;;;;;-0.27;85.70;100466.09;5102018;28;20189;-67
2023/03/11 06:17:51;;;;;;;4.03;3.67;;;;;;;-0.27;85.48;100472.22;5101885;28;20193;-67
2023/03/11 06:20:18;;;;;;;7.83;3.40;;;;;;;-0.26;86.82;100473.09;5101929;28;20200;-67
2023/03/11 06:22:47;;;;;;;4.80;3.17;;;;;;;-0.25;86.58;100472.16;5120052;28;20298;-66
2023/03/11 06:25:14;;;;;;;3.97;3.57;;;;;;;-0.23;86.52;100473.84;5101731;28;20197;-68
2023/03/11 06:27:43;;;;;;;4.70;3.80;;;;;;;-0.25;86.45;100482.69;5101862;28;20190;-68
2023/03/11 06:30:10;;;;;;;4.43;3.93;;;;;;;-0.30;86.66;100480.19;5101850;28;20231;-68
2023/03/11 06:32:47;;;;;;;6.00;3.73;;;;;;;-0.30;86.97;100503.03;5101718;28;20233;-67
2023/03/11 06:35:14;;;;;;;6.73;3.63;;;;;;;-0.27;85.38;100495.03;5101788;28;20185;-68
2023/03/11 06:37:40;;;;;;;7.10;4.17;;;;;;;-0.29;85.09;100503.00;5120108;28;20557;-68
2023/03/11 06:40:09;;;;;;;14.13;3.63;;;;;;;-0.31;85.28;100503.91;5120027;28;20189;-68
2023/03/11 06:42:36;;;;;;;3.97;3.77;;;;;;;-0.30;84.64;100513.56;5101909;28;20310;-69
2023/03/11 06:45:03;;;;;;;6.23;4.03;;;;;;;-0.20;85.86;100508.88;5102517;28;20196;-68
2023/03/11 06:47:30;;;;;;;2.93;2.93;;;;;;;-0.27;85.71;100516.09;5102418;28;20204;-68
2023/03/11 06:49:58;;;;;;;6.30;3.50;;;;;;;-0.19;85.12;100522.00;5102470;28;20188;-68
2023/03/11 06:52:26;;;;;;;4.47;4.00;;;;;;;-0.21;84.36;100526.44;5101499;28;20306;-67
2023/03/11 06:54:54;;;;;;;6.60;4.33;;;;;;;-0.28;85.43;100533.66;5102460;28;20193;-69
2023/03/11 06:57:21;;;;;;;4.30;3.07;;;;;;;-0.23;84.21;100533.50;5101525;28;20193;-68
2023/03/11 06:59:49;;;;;;;5.13;4.20;;;;;;;-0.22;83.81;100538.72;5098985;28;20193;-68
2023/03/11 07:02:16;;;;;;;3.87;3.67;;;;;;;-0.13;84.50;100536.72;5098263;28;20236;-67
2023/03/11 07:04:43;;;;;;;7.17;4.03;;;;;;;-0.13;83.57;100541.97;5116568;28;20200;-69
2023/03/11 07:07:10;;;;;;;4.37;3.93;;;;;;;-0.09;84.44;100539.22;5098755;28;20204;-69
2023/03/11 07:09:37;;;;;;;5.57;4.23;;;;;;;-0.10;84.12;100548.00;5099092;28;20276;-69
2023/03/11 07:12:04;;;;;;;7.60;3.30;;;;;;;-0.11;83.30;100550.69;5098078;28;20217;-67
2023/03/11 07:14:34;;;;;;;4.20;4.00;;;;;;;-0.10;83.29;100553.25;5099059;28;20181;-69
2023/03/11 07:17:01;;;;;;;7.30;3.80;;;;;;;-0.10;84.15;100558.53;5116342;28;20264;-68
2023/03/11 07:19:35;;;;;;;8.83;4.30;;;;;;;-0.03;84.08;100567.09;5099014;28;20180;-69
2023/03/11 07:22:01;;;;;;;5.53;4.03;;;;;;;-0.04;84.19;100571.50;5116529;28;20582;-67
2023/03/11 07:24:28;;;;;;;5.00;4.53;;;;;;;-0.01;83.77;100574.03;5116052;28;20276;-67
2023/03/11 07:26:54;;;;;;;3.83;3.53;;;;;;;0.00;83.85;100574.94;5116446;28;20202;-67
2023/03/11 07:29:21;;;;;;;4.70;4.20;;;;;;;0.05;84.47;100583.53;5116108;28;20193;-67
2023/03/11 07:31:47;;;;;;;5.17;4.00;;;;;;;0.07;83.85;100581.69;5116049;28;20211;-67
2023/03/11 07:34:14;;;;;;;5.17;4.60;;;;;;;0.17;82.94;100587.56;5115963;28;20193;-68
2023/03/11 07:36:41;;;;;;;4.23;3.93;;;;;;;0.20;83.20;100590.09;5116657;28;20646;-69
2023/03/11 07:39:15;;;;;;;7.47;3.83;;;;;;;0.27;82.61;100599.53;5117452;28;20551;-69
2023/03/11 07:41:42;;;;;;;4.07;3.80;;;;;;;0.27;81.70;100590.75;5116091;28;20223;-68
2023/03/11 07:44:12;;;;;;;8.73;4.23;;;;;;;0.32;81.15;100597.59;5116174;28;20195;-68
2023/03/11 07:46:38;;;;;;;6.00;4.00;;;;;;;0.37;81.67;100598.31;5115760;28;20651;-69
2023/03/11 07:49:05;;;;;;;3.70;3.60;;;;;;;0.45;80.68;100595.44;5115725;28;20264;-69
2023/03/11 07:51:34;;;;;;;8.93;4.80;;;;;;;0.53;80.67;100608.38;5115551;28;20227;-68
2023/03/11 07:54:01;;;;;;;6.13;4.07;;;;;;;0.58;79.42;100607.31;5115939;28;20199;-68
2023/03/11 07:56:31;;;;;;;9.47;3.80;;;;;;;0.64;79.68;100615.00;5115488;28;20185;-68
2023/03/11 07:58:59;;;;;;;6.13;3.77;;;;;;;0.69;79.16;100620.09;5115515;28;20200;-68
2023/03/11 08:01:29;;;;;;;3.43;3.20;;;;;;;0.75;79.10;100630.47;5115877;28;20220;-67
2023/03/11 08:03:57;;;;;;;3.23;3.13;;;;;;;0.76;78.69;100626.91;5115669;28;20256;-68
2023/03/11 08:06:29;;;;;;;6.77;3.77;;;;;;;0.80;78.54;100635.59;5115416;28;20180;-67
2023/03/11 08:08:58;;;;;;;6.97;2.80;;;;;;;0.89;78.05;100643.19;5115619;28;20181;-68
2023/03/11 08:11:25;;;;;;;4.83;3.13;;;;;;;1.02;77.09;100641.00;5115291;28;20197;-68
2023/03/11 08:13:52;;;;;;;3.27;3.03;;;;;;;1.08;77.24;100640.81;5115516;28;20177;-69
2023/03/11 08:16:21;;;;;;;4.63;3.53;;;;;;;1.16;75.63;100651.09;5115394;28;20187;-69
2023/03/11 08:18:49;;;;;;;5.60;3.37;;;;;;;1.30;76.74;100653.25;5115441;28;20178;-68
2023/03/11 08:21:23;;;;;;;2.93;2.83;;;;;;;1.25;75.40;100645.50;5115469;28;20205;-67
2023/03/11 08:23:51;;;;;;;3.10;3.00;;;;;;;1.30;74.84;100654.09;5115174;28;20698;-69
2023/03/11 08:26:20;;;;;;;2.80;2.80;;;;;;;1.34;73.90;100652.22;5115098;28;20192;-69
2023/03/11 08:28:48;;;;;;;2.57;2.47;;;;;;;1.36;75.64;100651.25;5115239;28;20188;-69
2023/03/11 08:31:17;;;;;;;3.60;3.30;;;;;;;1.48;75.63;100649.94;5114837;28;20217;-68
2023/03/11 08:33:46;;;;;;;3.33;3.23;;;;;;;1.43;74.04;100660.66;5114801;28;20192;-68
2023/03/11 08:36:12;;;;;;;9.53;3.30;;;;;;;1.53;72.09;100666.47;5115338;28;20205;-68
2023/03/11 08:38:39;;;;;;;2.83;2.83;;;;;;;1.57;72.48;100649.63;5114808;28;20256;-68
2023/03/11 08:41:05;;;;;;;2.93;2.67;;;;;;;1.74;74.38;100664.00;5114530;28;20205;-68
2023/03/11 08:43:32;;;;;;;9.63;2.40;;;;;;;1.81;71.72;100652.28;5114898;28;20169;-68
2023/03/11 08:46:00;;;;;;;3.60;2.57;;;;;;;1.84;70.92;100660.94;5114583;28;20243;-68
2023/03/11 08:48:27;;;;;;;2.87;2.67;;;;;;;2.05;72.84;100663.72;5114521;28;20651;-68
2023/03/11 08:50:53;;;;;;;2.73;2.70;;;;;;;2.24;72.83;100664.75;5114710;28;20183;-69
2023/03/11 08:53:21;;;;;;;2.43;2.23;;;;;;;2.33;70.50;100664.38;5114514;28;20212;-69
2023/03/11 08:55:51;;;;;;;4.53;2.73;;;;;;;2.43;70.39;100662.25;5114448;28;20232;-69
2023/03/11 08:58:21;;;;;;;2.20;2.07;;;;;;;2.45;70.03;100652.47;5114622;28;20537;-69
2023/03/11 09:00:48;;;;;;;3.10;2.90;;;;;;;2.56;68.71;100662.63;5114570;28;20212;-68
2023/03/11 09:03:14;;;;;;;2.77;2.50;;;;;;;2.71;68.77;100656.72;5114407;28;20207;-69
2023/03/11 09:05:40;;;;;;;3.53;2.63;;;;;;;2.76;68.21;100657.41;5114653;28;20207;-69
2023/03/11 09:08:07;;;;;;;1.80;1.80;;;;;;;2.85;67.50;100657.94;5114220;28;20193;-69
2023/03/11 09:10:33;;;;;;;2.67;2.53;;;;;;;2.98;67.43;100656.50;5114651;28;20650;-70
2023/03/11 09:13:00;;;;;;;2.57;2.57;;;;;;;2.92;66.96;100662.03;5114031;28;20707;-70
2023/03/11 09:15:26;;;;;;;5.30;2.40;;;;;;;2.91;65.82;100671.78;5114627;28;20262;-69
2023/03/11 09:17:53;;;;;;;5.70;2.33;;;;;;;2.96;66.31;100666.28;5114380;28;20197;-69
2023/03/11 09:20:19;;;;;;;2.93;2.73;;;;;;;2.86;67.20;100662.31;5113985;28;20196;-69
2023/03/11 09:22:46;;;;;;;2.23;2.23;;;;;;;2.66;67.60;100676.31;5113283;28;20771;-69
2023/03/11 09:25:12;;;;;;;3.77;2.77;;;;;;;2.51;65.08;100664.59;5113801;28;20715;-69
2023/03/11 09:27:40;;;;;;;4.23;2.63;;;;;;;2.59;66.62;100664.31;5113819;28;20527;-69
2023/03/11 09:30:08;;;;;;;8.40;2.63;;;;;;;2.55;65.51;100674.13;5113838;28;20208;-69
2023/03/11 09:32:34;;;;;;;2.23;2.10;;;;;;;2.51;65.73;100680.44;5113737;28;20213;-71
2023/03/11 09:35:01;;;;;;;2.40;2.30;;;;;;;2.60;64.74;100674.78;5114116;28;20203;-70
2023/03/11 09:37:29;;;;;;;2.63;2.10;;;;;;;2.92;65.83;100673.50;5114037;28;20202;-69
2023/03/11 09:39:55;;;;;;;1.70;1.70;;;;;;;3.12;62.99;100677.13;5113754;28;20206;-69
2023/03/11 09:42:53;;;;;;;3.77;2.90;;;;;;;3.09;63.64;100685.16;5113600;28;20216;-68
2023/03/11 09:45:32;;;;;;;8.00;2.43;;;;;;;2.93;65.15;100682.31;5113715;28;20541;-69
2023/03/11 09:48:29;;;;;;;2.23;2.23;;;;;;;2.74;63.24;100703.34;5114177;28;20205;-70
2023/03/11 09:51:09;;;;;;;5.80;2.63;;;;;;;2.65;62.66;100690.47;5113944;28;20180;-72
2023/03/11 09:53:42;;;;;;;4.60;2.27;;;;;;;2.65;62.78;100696.63;5113635;28;20172;-71
2023/03/11 09:56:13;;;;;;;4.23;2.70;;;;;;;2.66;63.79;100695.72;5114086;28;20178;-71
2023/03/11 09:58:42;;;;;;;3.50;2.40;;;;;;;2.91;65.67;100678.84;5113819;28;20181;-71
2023/03/11 10:01:25;;;;;;;3.43;3.33;;;;;;;3.12;60.91;100690.34;5113647;28;20179;-70
2023/03/11 10:03:59;;;;;;;2.47;2.43;;;;;;;3.33;61.45;100689.44;5114163;28;20261;-71
2023/03/11 10:06:28;;;;;;;2.90;2.70;;;;;;;3.59;61.82;100698.03;5113827;28;20186;-71
2023/03/11 10:09:27;;;;;;;2.17;2.13;;;;;;;3.86;62.89;100706.56;5114067;28;20629;-71
2023/03/11 10:12:24;;;;;;;3.17;2.90;;;;;;;3.95;60.04;100706.16;5113661;28;20217;-70
2023/03/11 10:14:54;;;;;;;2.97;2.23;;;;;;;4.09;59.82;100707.31;5113722;28;20183;-72
2023/03/11 10:17:40;;;;;;;2.20;2.00;;;;;;;4.13;59.76;100715.06;5113784;28;20166;-71
2023/03/11 10:20:16;;;;;;;3.03;1.83;;;;;;;3.93;59.86;100709.81;5095805;28;20201;-71
2023/03/11 10:23:11;;;;;;;5.70;1.90;;;;;;;4.01;61.57;100708.53;5113410;28;20303;-71
2023/03/11 10:25:53;;;;;;;1.80;1.70;;;;;;;4.12;63.20;100712.47;5113596;28;20199;-71
2023/03/11 10:28:23;;;;;;;2.07;1.97;;;;;;;4.23;61.45;100704.91;5113658;28;20179;-71
2023/03/11 10:30:56;;;;;;;2.37;2.37;;;;;;;4.39;60.38;100707.72;5095162;28;20276;-71
2023/03/11 10:33:38;;;;;;;2.17;1.97;;;;;;;4.52;57.42;100718.59;5113378;28;20206;-71
2023/03/11 10:36:11;;;;;;;3.47;2.20;;;;;;;4.69;60.34;100710.69;5117411;28;20591;-72
2023/03/11 10:38:45;;;;;;;7.30;3.00;;;;;;;4.75;56.27;100712.22;5117059;28;20260;-72
2023/03/11 10:41:28;;;;;;;9.10;1.70;;;;;;;4.50;57.64;100715.16;5117287;28;20175;-70
2023/03/11 10:44:16;;;;;;;5.13;2.50;;;;;;;4.40;58.06;100712.06;5117249;28;20550;-71
2023/03/11 10:46:42;;;;;;;3.83;2.03;;;;;;;4.44;55.50;100714.50;5117680;28;20173;-71
2023/03/11 10:49:17;;;;;;;3.10;2.83;;;;;;;4.39;56.64;100715.66;5116922;28;20189;-71
2023/03/11 10:51:46;;;;;;;3.07;2.97;;;;;;;4.44;56.94;100718.97;5117045;28;20781;-70
2023/03/11 10:54:29;;;;;;;6.70;3.13;;;;;;;4.61;55.86;100726.97;5116727;28;20189;-71
2023/03/11 10:56:58;;;;;;;2.37;2.37;;;;;;;4.90;58.06;100730.88;5117112;28;20165;-71
2023/03/11 10:59:32;;;;;;;4.93;4.73;;;;;;;5.07;56.93;100738.03;5116890;28;20560;-71
2023/03/11 11:02:25;;;;;;;4.10;4.00;;;;;;;5.15;53.80;100728.84;5116787;28;20622;-71
2023/03/11 11:05:21;;;;;;;4.03;3.93;;;;;;;4.89;54.31;100718.56;5116567;28;20213;-71
2023/03/11 11:07:52;;;;;;;4.73;3.43;;;;;;;4.70;55.11;100723.03;5116546;28;20178;-71
2023/03/11 11:10:26;;;;;;;3.63;3.63;;;;;;;4.72;55.08;100730.91;5116520;28;20166;-72
2023/03/11 11:13:00;;;;;;;3.53;3.33;;;;;;;4.68;53.97;100727.56;5116953;28;20288;-70
2023/03/11 11:15:34;;;;;;;4.97;4.77;;;;;;;4.73;53.98;100724.69;5099252;28;20528;-71
2023/03/11 11:18:16;;;;;;;4.33;3.93;;;;;;;4.67;52.37;100724.06;5098858;28;20169;-71
2023/03/11 11:21:00;;;;;;;4.30;4.10;;;;;;;4.70;54.01;100715.09;5117001;28;20173;-71
2023/03/11 11:23:41;;;;;;;4.67;2.40;;;;;;;4.68;54.74;100716.94;5116571;28;20669;-72
2023/03/11 11:26:20;;;;;;;3.40;3.20;;;;;;;4.68;54.63;100714.28;5116204;28;20197;-72
2023/03/11 11:29:06;;;;;;;3.40;2.30;;;;;;;4.53;53.35;100717.69;5116243;28;20173;-72
2023/03/11 11:31:37;;;;;;;3.10;2.20;;;;;;;4.53;53.22;100721.19;5116078;28;20201;-70
2023/03/11 11:34:29;;;;;;;5.50;2.53;;;;;;;4.55;54.03;100718.44;5116263;28;20193;-70
2023/03/11 11:36:59;;;;;;;2.23;2.10;;;;;;;4.56;53.85;100714.88;5115907;28;20200;-70
2023/03/11 11:39:27;;;;;;;2.00;2.00;;;;;;;4.80;56.32;100716.34;5116472;28;20196;-70
2023/03/11 11:41:55;;;;;;;2.10;2.10;;;;;;;5.03;55.56;100722.38;5115749;28;20625;-70